Chitose — JD2925 — position and weather

sailwx.info

Track history (hours):
 
Tides and Currents Weather Stations Pressure Air Temp Water Temp Dewpoint Dewpoint Depression Visibility Wind Speed Wind Dir Waves Ship Positions

Chitose

Last reported at 2015-Jul-02 09:22 UTC. Time now 2015-Jul-02 12:29 UTC.
Position N 35°27' E 139°40'.

Length 33 m; draft 3.8 m.

Type: Tug. MMSI: 431000953.

Date/timePositionNaut miles runAvg speedWind from/ knotsBaromVisibWave heightAir tempDewpointWater temp
2015-Jul-02 09:22N 35°27' E 139°40'0 0.4
2015-Jul-02 08:34N 35°27' E 139°39'0 0.2
2015-Jul-02 07:33N 35°27' E 139°39'2 1.7
2015-Jul-02 06:33N 35°27' E 139°41'1 0.9
2015-Jul-02 05:33N 35°26' E 139°41'1 1.3
2015-Jul-02 04:33N 35°27' E 139°40'0 0.0
2015-Jul-02 03:33N 35°27' E 139°40'0 0.0
2015-Jul-02 02:33N 35°27' E 139°40'0 0.0
2015-Jul-02 01:33N 35°27' E 139°40'0 0.0
2015-Jul-02 00:33N 35°27' E 139°40'0 0.0
2015-Jul-01 23:33N 35°27' E 139°40'0 0.0
2015-Jul-01 22:33N 35°27' E 139°40'0 0.0
2015-Jun-30 22:34N 35°27' E 139°40'1 1.1
2015-Jun-30 21:34N 35°27' E 139°41'1 1.1
2015-Jun-30 20:34N 35°27' E 139°42'1 1.1
2015-Jun-30 19:34N 35°28' E 139°41'2 0.2
2015-Jun-30 09:33N 35°27' E 139°39'3 2.5
2015-Jun-30 08:33N 35°25' E 139°41'1 0.8
2015-Jun-30 07:33N 35°26' E 139°42'3 3.0
2015-Jun-30 06:33N 35°29' E 139°41'4 4.4
2015-Jun-30 05:33N 35°31' E 139°46'7 7.1
2015-Jun-30 04:33N 35°27' E 139°39'0 0.0
2015-Jun-30 03:33N 35°27' E 139°39'0 0.0
2015-Jun-30 02:33N 35°27' E 139°39'0 0.0
2015-Jun-30 01:34N 35°27' E 139°39'0 0.0
2015-Jun-30 00:34N 35°27' E 139°39'0 0.0
2015-Jun-29 23:34N 35°27' E 139°39'1 0.0
2015-Jun-28 23:33N 35°28' E 139°40'6 6.3
2015-Jun-28 22:33N 35°31' E 139°46'0 0.3
2015-Jun-28 21:33N 35°31' E 139°46'7 6.7
2015-Jun-28 20:33N 35°27' E 139°39'0 0.0
2015-Jun-28 19:33N 35°27' E 139°39'1 0.9
2015-Jun-28 18:34N 35°27' E 139°40'1 0.7
2015-Jun-28 17:33N 35°28' E 139°40'0 0.0
2015-Jun-28 16:33N 35°28' E 139°40'0 0.0
2015-Jun-28 15:33N 35°28' E 139°40'0 0.0
2015-Jun-28 14:33N 35°28' E 139°40'0 0.0
2015-Jun-28 13:33N 35°28' E 139°40'2 1.8
2015-Jun-28 12:34N 35°27' E 139°42'2 2.3
2015-Jun-28 11:33N 35°27' E 139°39'2 1.8
2015-Jun-28 10:33N 35°27' E 139°42'6 5.6
2015-Jun-28 09:33N 35°30' E 139°47'6 6.2
2015-Jun-28 08:33N 35°28' E 139°40'2 2.2
2015-Jun-28 07:33N 35°26' E 139°42'3 3.2
2015-Jun-28 06:34N 35°27' E 139°39'0 0.0
2015-Jun-28 05:33N 35°27' E 139°39'0 0.0
2015-Jun-28 04:33N 35°27' E 139°39'0 0.0
2015-Jun-28 03:33N 35°27' E 139°39'0 0.0
2015-Jun-28 02:33N 35°27' E 139°39'0 0.0
2015-Jun-28 01:33N 35°27' E 139°39'0 0.0
2015-Jun-28 00:33N 35°27' E 139°39'0 0.0
2015-Jun-27 23:33N 35°27' E 139°39'0 0.0
2015-Jun-27 22:33N 35°27' E 139°39'0 0.0
2015-Jun-27 21:33N 35°27' E 139°39'0 0.0
2015-Jun-27 20:33N 35°27' E 139°39'0 0.0
2015-Jun-27 01:33N 35°27' E 139°39'3 3.0
2015-Jun-27 00:33N 35°26' E 139°42'3 2.6
2015-Jun-26 23:33N 35°28' E 139°40'2 2.2
2015-Jun-26 22:33N 35°27' E 139°42'3 2.6
2015-Jun-26 21:34N 35°27' E 139°39'1 0.1
2015-Jun-26 08:14N 35°27' E 139°40'1 1.3
2015-Jun-26 07:33N 35°27' E 139°41'3 3.3
2015-Jun-26 06:34N 35°24' E 139°40'1 1.1
2015-Jun-26 05:33N 35°25' E 139°39'3 3.1
2015-Jun-26 04:33N 35°25' E 139°42'4 3.9
2015-Jun-26 03:33N 35°27' E 139°39'1 0.0
2015-Jun-24 22:34N 35°27' E 139°40'2 2.0
2015-Jun-24 21:34N 35°26' E 139°42'0 0.4
2015-Jun-24 20:33N 35°27' E 139°42'0 0.0
2015-Jun-24 19:33N 35°27' E 139°42'0 0.0
2015-Jun-24 18:34N 35°27' E 139°42'1 0.9
2015-Jun-24 17:34N 35°28' E 139°42'1 1.4
2015-Jun-24 16:34N 35°28' E 139°40'0 0.3
2015-Jun-24 15:34N 35°28' E 139°41'0 0.0
2015-Jun-24 14:33N 35°28' E 139°41'0 0.0
2015-Jun-24 13:34N 35°28' E 139°41'0 0.0
2015-Jun-24 12:34N 35°28' E 139°41'0 0.0
2015-Jun-24 11:33N 35°28' E 139°41'1 1.1
2015-Jun-24 10:34N 35°27' E 139°41'1 1.4
2015-Jun-24 09:33N 35°28' E 139°41'2 1.6
2015-Jun-24 08:34N 35°28' E 139°43'1 0.6
2015-Jun-24 07:33N 35°27' E 139°42'  
Track history (hours):
 
Tides and Currents Weather Stations Pressure Air Temp Water Temp Dewpoint Dewpoint Depression Visibility Wind Speed Wind Dir Waves Ship Positions

Chitose

Last reported at 2015-Jul-02 09:22 UTC. Time now 2015-Jul-02 12:29 UTC.
Position N 35°27' E 139°40'.

Length 33 m; draft 3.8 m.

Type: Tug. MMSI: 431000953.

Date/timePositionNaut miles runAvg speedWind from/ knotsBaromVisibWave heightAir tempDewpointWater temp
2015-Jul-02 09:22N 35°27' E 139°40'0 0.4
2015-Jul-02 08:34N 35°27' E 139°39'0 0.2
2015-Jul-02 07:33N 35°27' E 139°39'2 1.7
2015-Jul-02 06:33N 35°27' E 139°41'1 0.9
2015-Jul-02 05:33N 35°26' E 139°41'1 1.3
2015-Jul-02 04:33N 35°27' E 139°40'0 0.0
2015-Jul-02 03:33N 35°27' E 139°40'0 0.0
2015-Jul-02 02:33N 35°27' E 139°40'0 0.0
2015-Jul-02 01:33N 35°27' E 139°40'0 0.0
2015-Jul-02 00:33N 35°27' E 139°40'0 0.0
2015-Jul-01 23:33N 35°27' E 139°40'0 0.0
2015-Jul-01 22:33N 35°27' E 139°40'0 0.0
2015-Jun-30 22:34N 35°27' E 139°40'1 1.1
2015-Jun-30 21:34N 35°27' E 139°41'1 1.1
2015-Jun-30 20:34N 35°27' E 139°42'1 1.1
2015-Jun-30 19:34N 35°28' E 139°41'2 0.2
2015-Jun-30 09:33N 35°27' E 139°39'3 2.5
2015-Jun-30 08:33N 35°25' E 139°41'1 0.8
2015-Jun-30 07:33N 35°26' E 139°42'3 3.0
2015-Jun-30 06:33N 35°29' E 139°41'4 4.4
2015-Jun-30 05:33N 35°31' E 139°46'7 7.1
2015-Jun-30 04:33N 35°27' E 139°39'0 0.0
2015-Jun-30 03:33N 35°27' E 139°39'0 0.0
2015-Jun-30 02:33N 35°27' E 139°39'0 0.0
2015-Jun-30 01:34N 35°27' E 139°39'0 0.0
2015-Jun-30 00:34N 35°27' E 139°39'0 0.0
2015-Jun-29 23:34N 35°27' E 139°39'1 0.0
2015-Jun-28 23:33N 35°28' E 139°40'6 6.3
2015-Jun-28 22:33N 35°31' E 139°46'0 0.3
2015-Jun-28 21:33N 35°31' E 139°46'7 6.7
2015-Jun-28 20:33N 35°27' E 139°39'0 0.0
2015-Jun-28 19:33N 35°27' E 139°39'1 0.9
2015-Jun-28 18:34N 35°27' E 139°40'1 0.7
2015-Jun-28 17:33N 35°28' E 139°40'0 0.0
2015-Jun-28 16:33N 35°28' E 139°40'0 0.0
2015-Jun-28 15:33N 35°28' E 139°40'0 0.0
2015-Jun-28 14:33N 35°28' E 139°40'0 0.0
2015-Jun-28 13:33N 35°28' E 139°40'2 1.8
2015-Jun-28 12:34N 35°27' E 139°42'2 2.3
2015-Jun-28 11:33N 35°27' E 139°39'2 1.8
2015-Jun-28 10:33N 35°27' E 139°42'6 5.6
2015-Jun-28 09:33N 35°30' E 139°47'6 6.2
2015-Jun-28 08:33N 35°28' E 139°40'2 2.2
2015-Jun-28 07:33N 35°26' E 139°42'3 3.2
2015-Jun-28 06:34N 35°27' E 139°39'0 0.0
2015-Jun-28 05:33N 35°27' E 139°39'0 0.0
2015-Jun-28 04:33N 35°27' E 139°39'0 0.0
2015-Jun-28 03:33N 35°27' E 139°39'0 0.0
2015-Jun-28 02:33N 35°27' E 139°39'0 0.0
2015-Jun-28 01:33N 35°27' E 139°39'0 0.0
2015-Jun-28 00:33N 35°27' E 139°39'0 0.0
2015-Jun-27 23:33N 35°27' E 139°39'0 0.0
2015-Jun-27 22:33N 35°27' E 139°39'0 0.0
2015-Jun-27 21:33N 35°27' E 139°39'0 0.0
2015-Jun-27 20:33N 35°27' E 139°39'0 0.0
2015-Jun-27 01:33N 35°27' E 139°39'3 3.0
2015-Jun-27 00:33N 35°26' E 139°42'3 2.6
2015-Jun-26 23:33N 35°28' E 139°40'2 2.2
2015-Jun-26 22:33N 35°27' E 139°42'3 2.6
2015-Jun-26 21:34N 35°27' E 139°39'1 0.1
2015-Jun-26 08:14N 35°27' E 139°40'1 1.3
2015-Jun-26 07:33N 35°27' E 139°41'3 3.3
2015-Jun-26 06:34N 35°24' E 139°40'1 1.1
2015-Jun-26 05:33N 35°25' E 139°39'3 3.1
2015-Jun-26 04:33N 35°25' E 139°42'4 3.9
2015-Jun-26 03:33N 35°27' E 139°39'1 0.0
2015-Jun-24 22:34N 35°27' E 139°40'2 2.0
2015-Jun-24 21:34N 35°26' E 139°42'0 0.4
2015-Jun-24 20:33N 35°27' E 139°42'0 0.0
2015-Jun-24 19:33N 35°27' E 139°42'0 0.0
2015-Jun-24 18:34N 35°27' E 139°42'1 0.9
2015-Jun-24 17:34N 35°28' E 139°42'1 1.4
2015-Jun-24 16:34N 35°28' E 139°40'0 0.3
2015-Jun-24 15:34N 35°28' E 139°41'0 0.0
2015-Jun-24 14:33N 35°28' E 139°41'0 0.0
2015-Jun-24 13:34N 35°28' E 139°41'0 0.0
2015-Jun-24 12:34N 35°28' E 139°41'0 0.0
2015-Jun-24 11:33N 35°28' E 139°41'1 1.1
2015-Jun-24 10:34N 35°27' E 139°41'1 1.4
2015-Jun-24 09:33N 35°28' E 139°41'2 1.6
2015-Jun-24 08:34N 35°28' E 139°43'1 0.6
2015-Jun-24 07:33N 35°27' E 139°42'  

Dump ship's entire track history